Time;durP1;ratioP1;P1;durP2;ratioP2;P2;SDS_P1;SDS_P2;PMS_P1;PMS_P2;Temp;Humidity;BMP_temperature;BMP_pressure;BME280_temperature;BME280_humidity;BME280_pressure;Samples;Min_cycle;Max_cycle;Signal;HPM_P1;HPM_P2
2023/01/20 00:00:10;;;;;;;10.73;7.97;;;6.40;62.10;;;;;;5051153;28;20239;-73
2023/01/20 00:02:37;;;;;;;10.60;7.70;;;6.40;62.40;;;;;;5077272;28;20241;-73
2023/01/20 00:05:04;;;;;;;9.30;7.60;;;6.50;62.40;;;;;;5092508;28;20614;-71
2023/01/20 00:07:33;;;;;;;10.68;8.13;;;6.40;62.40;;;;;;5094650;28;20253;-71
2023/01/20 00:10:00;;;;;;;11.63;7.88;;;6.30;62.30;;;;;;5100876;28;20201;-72
2023/01/20 00:12:30;;;;;;;12.77;8.75;;;6.30;62.30;;;;;;5078074;28;20254;-72
2023/01/20 00:14:57;;;;;;;11.95;8.18;;;6.40;62.60;;;;;;5091860;28;20211;-72
2023/01/20 00:17:27;;;;;;;10.80;8.48;;;6.30;62.50;;;;;;5075218;28;20207;-72
2023/01/20 00:19:54;;;;;;;12.45;8.60;;;6.30;63.30;;;;;;5075070;28;20303;-72
2023/01/20 00:22:21;;;;;;;8.90;7.65;;;6.30;62.50;;;;;;5074646;28;20260;-74
2023/01/20 00:24:48;;;;;;;13.10;8.90;;;6.20;62.40;;;;;;5075304;28;20233;-71
2023/01/20 00:27:15;;;;;;;10.65;8.60;;;6.20;62.30;;;;;;5074944;28;20207;-72
2023/01/20 00:29:44;;;;;;;11.73;8.88;;;6.20;62.40;;;;;;5075092;28;20293;-71
2023/01/20 00:32:11;;;;;;;11.68;9.10;;;6.20;62.40;;;;;;5100622;28;20206;-72
2023/01/20 00:34:37;;;;;;;11.18;8.70;;;6.20;62.50;;;;;;5079439;28;20205;-71
2023/01/20 00:37:04;;;;;;;11.93;9.85;;;6.20;62.50;;;;;;5075105;28;20216;-71
2023/01/20 00:39:31;;;;;;;12.82;9.50;;;6.20;62.70;;;;;;5074210;28;20319;-71
2023/01/20 00:42:01;;;;;;;12.50;8.43;;;6.20;62.70;;;;;;5082192;28;20613;-72
2023/01/20 00:44:27;;;;;;;10.32;8.10;;;6.10;62.60;;;;;;5094402;28;20291;-72
2023/01/20 00:46:56;;;;;;;10.70;8.45;;;6.10;62.70;;;;;;5094953;28;20311;-71
2023/01/20 00:49:24;;;;;;;11.30;8.50;;;6.10;62.70;;;;;;5094580;28;20203;-73
2023/01/20 00:51:50;;;;;;;11.23;8.25;;;6.10;63.60;;;;;;5086853;28;20284;-73
2023/01/20 00:54:17;;;;;;;11.70;9.30;;;6.00;62.70;;;;;;5073927;28;20201;-72
2023/01/20 00:56:44;;;;;;;13.73;9.18;;;6.00;62.80;;;;;;5082843;28;20287;-71
2023/01/20 00:59:11;;;;;;;12.70;8.88;;;6.00;62.80;;;;;;5093904;28;20228;-71
2023/01/20 01:01:38;;;;;;;13.20;9.25;;;6.00;62.90;;;;;;5094127;28;20200;-73
2023/01/20 01:04:06;;;;;;;11.25;9.00;;;6.00;63.80;;;;;;5094774;28;20666;-72
2023/01/20 01:06:33;;;;;;;14.18;9.70;;;5.90;62.70;;;;;;5094015;28;20199;-72
2023/01/20 01:09:00;;;;;;;10.68;8.98;;;5.90;62.60;;;;;;5094746;28;20564;-71
2023/01/20 01:11:27;;;;;;;12.90;8.55;;;5.90;62.60;;;;;;5093639;28;20673;-71
2023/01/20 01:13:56;;;;;;;10.68;8.65;;;5.90;62.80;;;;;;5094488;28;20208;-71
2023/01/20 01:16:23;;;;;;;11.73;8.40;;;5.90;63.00;;;;;;5083862;28;20571;-71
2023/01/20 01:18:53;;;;;;;11.38;8.88;;;5.90;63.00;;;;;;5074255;28;20221;-72
2023/01/20 01:21:22;;;;;;;10.50;9.20;;;5.90;63.20;;;;;;5073950;28;20209;-73
2023/01/20 01:23:50;;;;;;;9.90;8.80;;;5.90;63.40;;;;;;5073957;28;20236;-73
2023/01/20 01:26:17;;;;;;;12.10;8.27;;;5.90;63.40;;;;;;5073348;28;20650;-73
2023/01/20 01:28:47;;;;;;;11.40;8.80;;;5.80;63.60;;;;;;5073863;28;20203;-71
2023/01/20 01:31:13;;;;;;;11.25;9.15;;;5.90;63.90;;;;;;5081270;28;20201;-70
2023/01/20 01:33:40;;;;;;;12.05;8.30;;;5.80;63.80;;;;;;5094077;28;20203;-71
2023/01/20 01:36:13;;;;;;;12.30;9.07;;;5.80;64.10;;;;;;5088240;28;20201;-71
2023/01/20 01:38:41;;;;;;;10.93;8.23;;;5.90;64.20;;;;;;5074924;28;20700;-73
2023/01/20 01:41:10;;;;;;;12.43;9.00;;;5.90;64.00;;;;;;5074455;28;20207;-71
2023/01/20 01:43:38;;;;;;;10.27;8.30;;;5.90;63.90;;;;;;5094337;28;20288;-71
2023/01/20 01:46:06;;;;;;;11.40;8.55;;;5.90;63.80;;;;;;5093720;28;20208;-71
2023/01/20 01:48:37;;;;;;;11.10;9.73;;;5.80;63.70;;;;;;5093445;28;20211;-71
2023/01/20 01:51:07;;;;;;;10.30;8.35;;;5.80;63.80;;;;;;5093998;28;20193;-71
2023/01/20 01:53:40;;;;;;;11.57;8.13;;;5.80;63.80;;;;;;5072925;28;20212;-71
2023/01/20 01:56:09;;;;;;;11.35;8.50;;;5.80;63.70;;;;;;5073764;28;20590;-72
2023/01/20 01:58:39;;;;;;;11.32;8.70;;;5.70;63.50;;;;;;5072565;28;20211;-71
2023/01/20 02:01:06;;;;;;;9.88;8.48;;;5.80;63.50;;;;;;5054036;28;20777;-72
2023/01/20 02:03:39;;;;;;;12.55;8.93;;;5.80;63.30;;;;;;5073134;28;20800;-72
2023/01/20 02:06:07;;;;;;;11.38;8.75;;;5.80;63.50;;;;;;5073185;28;20193;-72
2023/01/20 02:08:34;;;;;;;10.02;8.50;;;5.80;63.40;;;;;;5072913;28;20304;-72
2023/01/20 02:11:01;;;;;;;11.73;8.45;;;5.70;63.60;;;;;;5073168;28;20216;-73
2023/01/20 02:13:30;;;;;;;13.10;9.13;;;5.80;63.80;;;;;;5072605;28;20211;-72
2023/01/20 02:16:08;;;;;;;10.85;8.80;;;5.70;63.80;;;;;;5072889;28;20296;-72
2023/01/20 02:18:48;;;;;;;12.02;8.82;;;5.80;63.80;;;;;;5073633;28;20188;-72
2023/01/20 02:21:49;;;;;;;9.90;8.30;;;5.90;63.80;;;;;;5072566;28;20197;-71
2023/01/20 02:24:57;;;;;;;10.93;8.80;;;5.80;64.00;;;;;;5072220;28;20696;-71
2023/01/20 02:27:43;;;;;;;12.32;8.15;;;5.70;64.70;;;;;;5071976;28;20212;-73
2023/01/20 02:30:53;;;;;;;10.38;8.15;;;5.70;63.70;;;;;;5072457;28;20181;-73
2023/01/20 02:33:27;;;;;;;10.85;8.45;;;5.70;63.80;;;;;;5072123;28;20825;-72
2023/01/20 02:35:58;;;;;;;11.50;8.60;;;5.70;63.90;;;;;;5073073;28;20254;-72
2023/01/20 02:38:31;;;;;;;12.30;8.90;;;5.70;63.90;;;;;;5072177;28;20189;-72
2023/01/20 02:41:09;;;;;;;10.43;8.50;;;5.60;63.90;;;;;;5072064;28;20227;-72
2023/01/20 02:43:44;;;;;;;10.20;8.10;;;5.70;64.00;;;;;;5071837;28;20209;-72
2023/01/20 02:46:23;;;;;;;10.18;8.63;;;5.60;63.90;;;;;;5072796;28;20277;-72
2023/01/20 02:48:57;;;;;;;11.45;8.82;;;5.60;63.90;;;;;;5075025;28;20280;-72
2023/01/20 02:51:28;;;;;;;10.55;8.55;;;5.70;64.00;;;;;;5091658;28;20249;-72
2023/01/20 02:53:59;;;;;;;9.32;8.02;;;5.60;63.90;;;;;;5072668;28;20227;-72
2023/01/20 02:56:29;;;;;;;12.95;8.23;;;5.70;64.00;;;;;;5071832;28;20193;-72
2023/01/20 02:59:00;;;;;;;11.40;8.13;;;5.60;63.90;;;;;;5072029;28;20231;-72
2023/01/20 03:01:32;;;;;;;11.23;8.73;;;5.60;64.10;;;;;;5071991;28;20192;-72
2023/01/20 03:04:02;;;;;;;12.75;9.68;;;5.60;64.30;;;;;;5072365;28;20185;-72
2023/01/20 03:06:34;;;;;;;12.75;9.38;;;5.50;64.30;;;;;;5071833;28;20524;-72
2023/01/20 03:09:05;;;;;;;11.95;8.55;;;5.60;64.60;;;;;;5072464;28;20277;-72
2023/01/20 03:11:36;;;;;;;10.35;8.13;;;5.60;64.50;;;;;;5071592;28;20198;-72
2023/01/20 03:14:08;;;;;;;9.63;8.63;;;5.60;64.50;;;;;;5071911;28;20189;-72
2023/01/20 03:16:35;;;;;;;13.00;8.13;;;5.60;64.40;;;;;;5071750;28;20197;-72
2023/01/20 03:19:03;;;;;;;13.27;8.68;;;5.60;64.40;;;;;;5071771;28;20220;-72
2023/01/20 03:21:30;;;;;;;14.95;9.73;;;5.60;64.40;;;;;;5071513;28;20205;-72
2023/01/20 03:24:00;;;;;;;15.95;10.18;;;5.60;64.50;;;;;;5071910;28;20229;-72
2023/01/20 03:26:29;;;;;;;15.90;11.15;;;5.60;64.60;;;;;;5071483;28;20276;-72
2023/01/20 03:28:57;;;;;;;15.43;10.75;;;5.60;64.50;;;;;;5072005;28;20208;-72
2023/01/20 03:31:26;;;;;;;15.50;9.88;;;5.60;64.80;;;;;;5085002;28;20548;-72
2023/01/20 03:33:56;;;;;;;14.43;10.35;;;5.50;65.00;;;;;;5071787;28;20679;-72
2023/01/20 03:36:29;;;;;;;10.98;8.40;;;5.60;65.20;;;;;;5071224;28;20700;-72
2023/01/20 03:38:58;;;;;;;10.25;8.50;;;5.50;64.90;;;;;;5036474;28;20291;-72
2023/01/20 03:41:33;;;;;;;12.32;9.10;;;5.60;65.00;;;;;;5071248;28;20209;-72
2023/01/20 03:44:09;;;;;;;14.32;9.10;;;5.80;65.10;;;;;;5089086;28;20648;-71
2023/01/20 03:46:42;;;;;;;10.93;7.95;;;5.70;64.90;;;;;;5092078;28;20200;-71
2023/01/20 03:49:17;;;;;;;27.60;16.55;;;5.60;64.70;;;;;;5094783;28;20189;-71
2023/01/20 03:51:54;;;;;;;27.67;18.67;;;5.60;64.70;;;;;;5093650;28;20238;-70
2023/01/20 03:54:26;;;;;;;22.83;14.25;;;5.70;64.70;;;;;;5075696;28;20240;-71
2023/01/20 03:57:02;;;;;;;17.55;12.35;;;5.70;64.80;;;;;;5075590;28;20193;-71
2023/01/20 03:59:32;;;;;;;14.85;10.55;;;5.60;64.60;;;;;;5074995;28;20565;-73
2023/01/20 04:02:04;;;;;;;14.07;9.38;;;5.70;64.80;;;;;;5075618;28;20296;-72
2023/01/20 04:04:34;;;;;;;10.63;8.30;;;5.60;64.70;;;;;;5075460;28;20519;-73
2023/01/20 04:07:04;;;;;;;11.95;8.20;;;5.70;64.50;;;;;;5075374;28;20614;-73
2023/01/20 04:09:35;;;;;;;11.50;7.88;;;5.70;64.60;;;;;;5074794;28;20201;-72
2023/01/20 04:12:02;;;;;;;11.10;8.48;;;5.60;64.50;;;;;;5092013;28;20201;-72
2023/01/20 04:14:29;;;;;;;11.65;7.93;;;5.80;64.70;;;;;;5094915;28;20211;-72
2023/01/20 04:16:57;;;;;;;11.35;8.25;;;5.70;64.50;;;;;;5095599;28;20214;-71
2023/01/20 04:19:25;;;;;;;11.05;7.80;;;5.70;64.50;;;;;;5094808;28;20224;-71
2023/01/20 04:22:00;;;;;;;11.48;7.85;;;5.70;64.60;;;;;;5088032;28;20587;-73
2023/01/20 04:24:31;;;;;;;10.65;7.78;;;5.70;64.70;;;;;;5074437;28;20236;-71
2023/01/20 04:26:58;;;;;;;11.35;7.70;;;5.70;65.50;;;;;;5075008;28;20280;-71
2023/01/20 04:29:25;;;;;;;9.02;7.65;;;5.70;64.50;;;;;;5074555;28;20212;-73
2023/01/20 04:31:58;;;;;;;8.90;7.68;;;5.70;64.70;;;;;;5083185;28;20201;-71
2023/01/20 04:34:25;;;;;;;10.02;7.63;;;5.70;64.70;;;;;;5074449;28;20618;-71
2023/01/20 04:36:52;;;;;;;10.50;7.38;;;5.80;64.70;;;;;;5075188;28;20206;-70
2023/01/20 04:39:18;;;;;;;10.82;8.35;;;5.60;64.50;;;;;;5074674;28;20205;-71
2023/01/20 04:41:48;;;;;;;10.45;8.10;;;5.70;64.70;;;;;;5075041;28;20219;-70
2023/01/20 04:44:15;;;;;;;10.88;8.20;;;5.70;64.90;;;;;;5074726;28;20215;-71
2023/01/20 04:46:42;;;;;;;11.23;7.80;;;5.60;64.70;;;;;;5074325;28;20205;-72
2023/01/20 04:49:10;;;;;;;9.35;7.63;;;5.60;64.90;;;;;;5075064;28;20266;-71
2023/01/20 04:51:37;;;;;;;9.43;7.78;;;5.70;65.10;;;;;;5083103;28;20306;-71
2023/01/20 04:54:04;;;;;;;8.10;6.90;;;5.50;65.00;;;;;;5089350;28;20288;-71
2023/01/20 04:56:31;;;;;;;10.02;7.35;;;5.50;64.90;;;;;;5022279;28;20585;-71
2023/01/20 04:58:59;;;;;;;11.02;7.97;;;5.50;64.80;;;;;;5074812;28;20657;-71
2023/01/20 05:01:26;;;;;;;11.80;7.78;;;5.40;64.70;;;;;;5074272;28;20219;-72
2023/01/20 05:03:53;;;;;;;10.88;7.07;;;5.40;64.80;;;;;;5074207;28;20228;-71
2023/01/20 05:06:20;;;;;;;10.02;6.90;;;5.60;64.90;;;;;;5074397;28;20209;-71
2023/01/20 05:08:47;;;;;;;8.45;6.93;;;5.40;64.70;;;;;;5073742;28;20209;-71
2023/01/20 05:11:14;;;;;;;9.07;7.50;;;5.40;64.90;;;;;;5074648;28;20251;-70
2023/01/20 05:13:41;;;;;;;8.98;7.57;;;5.40;64.90;;;;;;5074041;28;20295;-72
2023/01/20 05:16:10;;;;;;;8.32;6.72;;;5.30;65.00;;;;;;5074572;28;20231;-72
2023/01/20 05:18:37;;;;;;;8.00;6.80;;;5.30;65.00;;;;;;5073944;28;20288;-71
2023/01/20 05:21:07;;;;;;;7.75;6.90;;;5.30;64.80;;;;;;5074200;28;20225;-71
2023/01/20 05:23:34;;;;;;;8.32;6.57;;;5.30;64.70;;;;;;5073151;28;20225;-71
2023/01/20 05:26:01;;;;;;;8.15;6.68;;;5.30;64.50;;;;;;5081747;28;20235;-71
2023/01/20 05:28:28;;;;;;;7.18;5.82;;;5.30;64.40;;;;;;5093774;28;20669;-71
2023/01/20 05:30:55;;;;;;;8.88;6.53;;;5.30;64.20;;;;;;5097321;28;20287;-72
2023/01/20 05:33:23;;;;;;;7.80;6.13;;;5.30;64.20;;;;;;5117929;28;20200;-71
2023/01/20 05:35:50;;;;;;;7.28;6.28;;;5.20;64.40;;;;;;5095273;28;20247;-71
2023/01/20 05:38:17;;;;;;;8.02;6.35;;;5.20;64.50;;;;;;5093713;28;20294;-71
2023/01/20 05:40:44;;;;;;;9.68;6.45;;;5.10;64.40;;;;;;5093509;28;20244;-71
2023/01/20 05:43:10;;;;;;;8.02;6.40;;;5.20;64.50;;;;;;5094201;28;20206;-71
2023/01/20 05:45:37;;;;;;;7.70;5.97;;;5.20;64.50;;;;;;5093144;28;20203;-72
2023/01/20 05:48:05;;;;;;;7.68;6.15;;;5.20;65.20;;;;;;5094340;28;20205;-71
2023/01/20 05:50:34;;;;;;;8.50;6.03;;;5.20;64.40;;;;;;5093031;28;20644;-71
2023/01/20 05:53:01;;;;;;;7.43;6.10;;;5.10;64.20;;;;;;5093626;28;20201;-71
2023/01/20 05:55:28;;;;;;;7.07;5.53;;;5.00;64.30;;;;;;5093028;28;20212;-72
2023/01/20 05:57:55;;;;;;;7.15;5.75;;;5.10;64.40;;;;;;5093644;28;20208;-71
2023/01/20 06:00:22;;;;;;;6.95;5.60;;;5.00;64.40;;;;;;5094050;28;20221;-71
2023/01/20 06:02:49;;;;;;;6.55;5.13;;;5.00;64.50;;;;;;5093634;28;20277;-71
2023/01/20 06:05:16;;;;;;;7.88;5.90;;;5.00;65.20;;;;;;5092986;28;20243;-73
2023/01/20 06:07:45;;;;;;;7.55;5.53;;;5.00;64.70;;;;;;5082924;28;20288;-72
2023/01/20 06:10:12;;;;;;;8.05;5.60;;;4.90;64.60;;;;;;5073395;28;20341;-71
2023/01/20 06:12:39;;;;;;;6.90;5.20;;;4.90;64.70;;;;;;5020674;28;20260;-71
2023/01/20 06:15:07;;;;;;;7.05;5.03;;;4.80;64.70;;;;;;5074659;28;20284;-71
2023/01/20 06:17:34;;;;;;;7.43;5.43;;;4.80;64.80;;;;;;5074961;28;20280;-71
2023/01/20 06:20:03;;;;;;;6.95;5.38;;;4.80;64.80;;;;;;5073092;28;20312;-71
2023/01/20 06:22:30;;;;;;;7.68;5.25;;;4.80;64.90;;;;;;5072410;28;20208;-71
2023/01/20 06:24:58;;;;;;;5.43;4.88;;;4.70;64.80;;;;;;5072528;28;20701;-71
2023/01/20 06:27:25;;;;;;;6.47;5.47;;;4.80;64.90;;;;;;5072990;28;20197;-72
2023/01/20 06:29:52;;;;;;;6.25;4.72;;;4.80;65.00;;;;;;5073270;28;20292;-72
2023/01/20 06:32:19;;;;;;;7.38;5.18;;;4.80;65.00;;;;;;5097992;28;20204;-72
2023/01/20 06:34:46;;;;;;;6.22;5.20;;;4.80;65.10;;;;;;5081451;28;20201;-72
2023/01/20 06:37:13;;;;;;;7.97;6.00;;;4.80;65.00;;;;;;5073050;28;20205;-71
2023/01/20 06:39:40;;;;;;;7.63;6.00;;;4.90;64.90;;;;;;5072384;28;20205;-71
2023/01/20 06:42:09;;;;;;;8.73;5.90;;;4.90;64.80;;;;;;5073042;28;20225;-70
2023/01/20 06:44:36;;;;;;;11.27;5.97;;;4.80;64.50;;;;;;5089925;28;20248;-71
2023/01/20 06:47:03;;;;;;;8.73;6.22;;;4.90;64.50;;;;;;5073920;28;20212;-71
2023/01/20 06:49:32;;;;;;;8.52;5.65;;;5.00;64.50;;;;;;5092283;28;20205;-71
2023/01/20 06:51:59;;;;;;;7.13;5.18;;;5.00;64.40;;;;;;5080223;28;20227;-71
2023/01/20 06:54:26;;;;;;;7.50;5.70;;;4.90;64.30;;;;;;5074698;28;20197;-72
2023/01/20 06:56:53;;;;;;;7.85;5.47;;;5.00;64.40;;;;;;5089932;28;20200;-72
2023/01/20 06:59:21;;;;;;;8.85;5.50;;;4.90;64.10;;;;;;5092646;28;20619;-72
2023/01/20 07:01:48;;;;;;;10.60;5.85;;;5.00;63.90;;;;;;5091149;28;20216;-72
2023/01/20 07:04:15;;;;;;;5.90;5.00;;;4.90;63.70;;;;;;5092362;28;20222;-72
2023/01/20 07:06:42;;;;;;;6.28;5.63;;;4.90;63.70;;;;;;5092027;28;20211;-72
2023/01/20 07:09:11;;;;;;;6.93;5.50;;;4.90;63.70;;;;;;5092714;28;20222;-72
2023/01/20 07:11:38;;;;;;;7.13;5.22;;;4.80;63.70;;;;;;5091392;28;20668;-72
2023/01/20 07:14:06;;;;;;;8.93;5.80;;;4.90;64.00;;;;;;5073870;28;20215;-73
2023/01/20 07:16:35;;;;;;;7.85;5.53;;;4.80;63.90;;;;;;5092076;28;20199;-73
2023/01/20 07:19:01;;;;;;;8.45;5.57;;;4.80;63.80;;;;;;5092160;28;20200;-72
2023/01/20 07:21:31;;;;;;;7.53;5.63;;;4.80;63.90;;;;;;5095627;28;20223;-74
2023/01/20 07:24:00;;;;;;;6.20;5.10;;;4.80;63.90;;;;;;5081333;28;20290;-73
2023/01/20 07:26:27;;;;;;;6.50;5.43;;;4.80;63.90;;;;;;5089545;28;20204;-72
2023/01/20 07:28:53;;;;;;;7.72;5.40;;;4.70;64.10;;;;;;5083957;28;20665;-73
2023/01/20 07:31:23;;;;;;;7.93;5.72;;;4.70;64.00;;;;;;5106109;28;20192;-72
2023/01/20 07:33:52;;;;;;;6.97;5.20;;;4.70;63.90;;;;;;5102888;28;20208;-74
2023/01/20 07:36:19;;;;;;;8.63;5.55;;;4.70;63.50;;;;;;5091717;28;20200;-72
2023/01/20 07:38:48;;;;;;;7.82;5.50;;;4.70;63.50;;;;;;5091972;28;20295;-72
2023/01/20 07:41:16;;;;;;;7.57;5.65;;;4.70;63.60;;;;;;5090616;28;20220;-72
2023/01/20 07:43:44;;;;;;;5.80;5.18;;;4.70;63.50;;;;;;5081800;28;20614;-72
2023/01/20 07:46:11;;;;;;;7.78;5.95;;;4.70;63.60;;;;;;5075456;28;20211;-72
2023/01/20 07:48:38;;;;;;;8.70;6.22;;;4.70;63.70;;;;;;5073096;28;20213;-73
2023/01/20 07:51:08;;;;;;;7.07;5.40;;;4.80;63.80;;;;;;5072021;28;20296;-73
2023/01/20 07:53:37;;;;;;;8.23;6.18;;;4.80;63.60;;;;;;5002780;28;20205;-73
2023/01/20 07:56:06;;;;;;;8.90;6.45;;;4.80;63.50;;;;;;5071511;28;20223;-71
2023/01/20 07:58:33;;;;;;;8.50;6.30;;;4.80;63.40;;;;;;5071580;28;20244;-72
2023/01/20 08:01:07;;;;;;;6.60;5.60;;;4.90;63.60;;;;;;5071456;28;20220;-72
2023/01/20 08:03:34;;;;;;;8.93;5.85;;;4.90;63.80;;;;;;5071052;28;20197;-72
2023/01/20 08:06:02;;;;;;;8.73;5.68;;;4.90;63.80;;;;;;5071914;28;20212;-73
2023/01/20 08:08:31;;;;;;;7.30;6.53;;;4.90;63.90;;;;;;5071476;28;20255;-72
2023/01/20 08:11:00;;;;;;;9.45;6.03;;;5.00;63.90;;;;;;5072147;28;20209;-74
2023/01/20 08:13:27;;;;;;;8.55;5.70;;;5.00;63.90;;;;;;5072005;28;20205;-74
2023/01/20 08:15:54;;;;;;;7.68;6.10;;;5.00;64.00;;;;;;5069941;28;20216;-73
2023/01/20 08:18:21;;;;;;;9.25;5.72;;;5.10;63.80;;;;;;5071666;28;20225;-72
2023/01/20 08:20:47;;;;;;;7.10;5.65;;;5.20;63.90;;;;;;5070884;28;20281;-72
2023/01/20 08:23:14;;;;;;;7.63;5.60;;;5.30;63.90;;;;;;5071181;28;20248;-71
2023/01/20 08:25:43;;;;;;;7.65;5.78;;;5.30;63.90;;;;;;5085366;28;20207;-71
2023/01/20 08:28:09;;;;;;;8.00;5.63;;;5.40;63.80;;;;;;5091479;28;20204;-72
2023/01/20 08:30:36;;;;;;;6.82;5.60;;;5.50;64.00;;;;;;5090838;28;20215;-72
2023/01/20 08:33:03;;;;;;;7.63;5.88;;;5.50;63.80;;;;;;5071478;28;20296;-72
2023/01/20 08:35:30;;;;;;;8.38;6.25;;;5.60;63.60;;;;;;5079745;28;20637;-72
2023/01/20 08:37:57;;;;;;;7.20;6.03;;;5.80;63.60;;;;;;5092200;28;20215;-73
2023/01/20 08:40:24;;;;;;;8.75;6.13;;;5.90;63.50;;;;;;5094822;28;20760;-73
2023/01/20 08:42:52;;;;;;;6.68;5.60;;;6.00;63.30;;;;;;5094059;28;20220;-72
2023/01/20 08:45:19;;;;;;;8.13;6.20;;;6.10;63.10;;;;;;5094862;28;20295;-73
2023/01/20 08:47:46;;;;;;;7.85;5.85;;;6.10;62.70;;;;;;5094501;28;20208;-72
2023/01/20 08:50:14;;;;;;;9.02;5.97;;;6.20;63.60;;;;;;5094746;28;20250;-73
2023/01/20 08:52:42;;;;;;;8.15;6.03;;;6.40;63.00;;;;;;5094435;28;20287;-72
2023/01/20 08:55:10;;;;;;;9.50;5.75;;;6.40;62.30;;;;;;5095474;28;20214;-72
2023/01/20 08:57:37;;;;;;;7.70;6.07;;;6.60;62.50;;;;;;5094366;28;20208;-72
2023/01/20 09:00:09;;;;;;;9.32;7.10;;;6.70;62.20;;;;;;5094518;28;20740;-72
2023/01/20 09:02:37;;;;;;;8.70;6.28;;;6.80;61.90;;;;;;5094444;28;20227;-73
2023/01/20 09:05:04;;;;;;;8.07;5.82;;;7.00;61.90;;;;;;5076962;28;20227;-73
2023/01/20 09:07:31;;;;;;;8.07;5.70;;;7.10;61.40;;;;;;5095262;28;20205;-73
2023/01/20 09:09:58;;;;;;;7.28;6.03;;;7.20;61.30;;;;;;5094860;28;20656;-73
2023/01/20 09:12:25;;;;;;;8.65;6.43;;;7.20;60.80;;;;;;5094676;28;20209;-73
2023/01/20 09:14:52;;;;;;;12.55;7.18;;;7.30;60.40;;;;;;5094209;28;20295;-74
2023/01/20 09:17:20;;;;;;;7.00;6.18;;;7.30;60.40;;;;;;5095027;28;20204;-73
2023/01/20 09:19:47;;;;;;;9.25;6.47;;;7.30;60.40;;;;;;5094346;28;20220;-74
2023/01/20 09:22:14;;;;;;;9.70;6.97;;;7.40;61.00;;;;;;5094454;28;20234;-74
2023/01/20 09:24:40;;;;;;;7.65;6.20;;;7.50;60.20;;;;;;5093759;28;20260;-73
2023/01/20 09:27:07;;;;;;;8.70;6.17;;;7.50;60.00;;;;;;5094943;28;20204;-74
2023/01/20 09:29:35;;;;;;;9.00;6.20;;;7.50;60.60;;;;;;5093878;28;20448;-72
2023/01/20 09:32:02;;;;;;;8.93;6.43;;;7.60;59.80;;;;;;5094604;28;20196;-75
2023/01/20 09:34:31;;;;;;;9.18;5.90;;;7.60;59.80;;;;;;5094772;28;20873;-75
2023/01/20 09:43:52;;;;;;;7.72;6.43;;;7.50;59.70;;;;;;5094006;28;20200;-75
2023/01/20 09:45:32;;;;;;;9.90;7.05;;;7.60;60.10;;;;;;5093996;28;20210;-74
2023/01/20 09:48:12;;;;;;;9.15;7.32;;;7.50;60.00;;;;;;5093898;28;20275;-76
2023/01/20 09:53:50;;;;;;;7.82;6.68;;;7.50;60.10;;;;;;5094207;28;20452;-73
2023/01/20 09:56:19;;;;;;;8.75;7.40;;;7.60;60.50;;;;;;5093730;28;20193;-72
2023/01/20 09:58:52;;;;;;;9.67;7.17;;;7.60;60.20;;;;;;5093369;28;20211;-72
2023/01/20 10:01:29;;;;;;;7.70;6.83;;;7.70;60.50;;;;;;5093840;28;20561;-71
2023/01/20 10:04:01;;;;;;;7.70;6.73;;;7.70;60.00;;;;;;5093092;28;20440;-71
2023/01/20 10:06:33;;;;;;;8.70;7.50;;;7.80;60.10;;;;;;5093775;28;20522;-72
2023/01/20 10:09:03;;;;;;;8.57;7.07;;;7.70;60.00;;;;;;5093358;28;20426;-72
2023/01/20 10:11:35;;;;;;;8.35;7.13;;;7.80;60.40;;;;;;5093174;28;20430;-72
2023/01/20 10:14:11;;;;;;;10.97;7.70;;;7.90;60.40;;;;;;5093597;28;20283;-72
2023/01/20 10:16:44;;;;;;;8.05;6.63;;;7.90;60.10;;;;;;5093130;28;20434;-72
2023/01/20 10:19:18;;;;;;;9.73;7.73;;;8.00;60.00;;;;;;5093557;28;20635;-72
2023/01/20 10:21:53;;;;;;;9.43;7.70;;;8.10;59.80;;;;;;5092652;28;20632;-72
2023/01/20 10:24:24;;;;;;;8.83;7.33;;;8.30;59.60;;;;;;5092982;28;20488;-73
2023/01/20 10:26:56;;;;;;;8.70;7.57;;;8.30;59.50;;;;;;5092624;28;20442;-70
2023/01/20 10:29:32;;;;;;;8.73;7.20;;;8.30;59.90;;;;;;5093331;28;20492;-70
2023/01/20 10:32:00;;;;;;;8.53;7.60;;;8.50;59.10;;;;;;5104196;28;20429;-70
2023/01/20 10:34:36;;;;;;;10.63;7.57;;;8.60;59.10;;;;;;5113653;28;20544;-71
2023/01/20 10:37:07;;;;;;;8.10;7.10;;;8.60;58.70;;;;;;5073261;28;20439;-71
2023/01/20 10:39:42;;;;;;;8.60;7.23;;;8.70;58.70;;;;;;5072853;28;20436;-71
2023/01/20 10:42:13;;;;;;;10.70;7.40;;;8.70;58.60;;;;;;5072651;28;20467;-72
2023/01/20 10:44:40;;;;;;;11.30;7.63;;;8.80;58.60;;;;;;5089767;28;20456;-71
2023/01/20 10:47:16;;;;;;;9.37;7.33;;;8.90;58.50;;;;;;5093319;28;20525;-71
2023/01/20 10:50:17;;;;;;;11.03;8.07;;;9.00;58.20;;;;;;5092362;28;20430;-72
2023/01/20 10:53:06;;;;;;;10.80;8.00;;;9.00;57.70;;;;;;5048962;28;20790;-72
2023/01/20 10:55:43;;;;;;;10.83;8.40;;;9.10;57.80;;;;;;5092682;28;20454;-72
2023/01/20 10:58:18;;;;;;;9.70;8.37;;;9.10;57.90;;;;;;5092530;28;20517;-72
2023/01/20 11:00:48;;;;;;;10.15;7.95;;;9.20;57.60;;;;;;5091446;28;20513;-72
2023/01/20 11:03:19;;;;;;;10.60;7.97;;;9.30;57.90;;;;;;5093073;28;20669;-73
2023/01/20 11:05:47;;;;;;;11.37;8.70;;;9.40;57.40;;;;;;5057175;28;20442;-72
2023/01/20 11:08:18;;;;;;;11.43;7.87;;;9.50;57.10;;;;;;5092647;28;20450;-72
2023/01/20 11:10:46;;;;;;;10.27;8.30;;;9.70;56.90;;;;;;5091971;28;20497;-73
2023/01/20 11:13:13;;;;;;;10.73;8.00;;;9.60;56.50;;;;;;5092899;28;20525;-72
2023/01/20 11:15:44;;;;;;;10.17;8.47;;;9.70;56.70;;;;;;5092228;28;20529;-72
2023/01/20 11:18:25;;;;;;;8.87;7.77;;;9.80;56.30;;;;;;5092405;28;20461;-73
2023/01/20 11:20:54;;;;;;;10.07;8.27;;;9.80;55.80;;;;;;5091882;28;20997;-71
2023/01/20 11:23:35;;;;;;;9.47;8.23;;;9.80;56.50;;;;;;5091778;28;20490;-71
2023/01/20 11:26:08;;;;;;;10.10;8.20;;;10.00;55.40;;;;;;5091763;28;20907;-72
2023/01/20 11:28:46;;;;;;;13.10;8.83;;;10.20;55.20;;;;;;5092411;28;20435;-73
2023/01/20 11:31:13;;;;;;;10.20;8.67;;;10.30;54.40;;;;;;5092540;28;20438;-71
2023/01/20 11:33:41;;;;;;;9.50;8.33;;;10.40;54.40;;;;;;5091999;28;20533;-71
2023/01/20 11:36:18;;;;;;;10.07;8.30;;;10.40;53.90;;;;;;5078324;28;20452;-71
2023/01/20 11:38:48;;;;;;;10.40;8.17;;;10.60;54.00;;;;;;5071199;28;20953;-71
2023/01/20 11:41:20;;;;;;;9.90;8.13;;;10.60;53.60;;;;;;5071991;28;20436;-72
2023/01/20 11:43:48;;;;;;;9.83;8.13;;;10.70;54.10;;;;;;5071464;28;20549;-72
2023/01/20 11:46:27;;;;;;;9.33;8.33;;;10.80;53.90;;;;;;5090680;28;20443;-72
2023/01/20 11:49:14;;;;;;;11.07;9.20;;;10.90;53.60;;;;;;5091632;28;20430;-72
2023/01/20 11:51:49;;;;;;;9.90;8.90;;;10.80;53.30;;;;;;5091572;28;20517;-72
2023/01/20 11:54:20;;;;;;;10.87;8.53;;;10.60;53.60;;;;;;5092052;28;20557;-71
2023/01/20 11:56:52;;;;;;;9.93;7.97;;;10.40;53.80;;;;;;5091579;28;20427;-71
2023/01/20 11:59:26;;;;;;;10.23;8.27;;;10.30;53.80;;;;;;5092208;28;20429;-71
2023/01/20 12:02:02;;;;;;;11.27;9.13;;;10.10;54.00;;;;;;5091566;28;20466;-71
2023/01/20 12:04:51;;;;;;;11.03;9.53;;;9.80;55.50;;;;;;5092461;28;20501;-70
2023/01/20 12:07:23;;;;;;;10.73;9.27;;;9.60;56.10;;;;;;5091876;28;20434;-72
2023/01/20 12:09:55;;;;;;;10.67;9.57;;;9.30;56.20;;;;;;5091489;28;20522;-73
2023/01/20 12:12:30;;;;;;;10.03;9.03;;;9.20;56.50;;;;;;5092119;28;20491;-71
2023/01/20 12:15:02;;;;;;;10.50;8.77;;;9.10;56.60;;;;;;5095665;28;20431;-71
2023/01/20 12:17:41;;;;;;;10.33;9.23;;;9.10;56.90;;;;;;5078732;28;20438;-71
2023/01/20 12:20:16;;;;;;;12.33;8.97;;;9.10;56.70;;;;;;5095938;28;20473;-71
2023/01/20 12:22:53;;;;;;;10.80;8.77;;;9.20;56.90;;;;;;5094875;28;20501;-71
2023/01/20 12:25:25;;;;;;;11.90;8.77;;;9.50;57.10;;;;;;5096013;28;20509;-71
2023/01/20 12:27:56;;;;;;;11.07;8.87;;;9.50;56.20;;;;;;5095147;28;20431;-72
2023/01/20 12:30:41;;;;;;;9.27;7.60;;;9.70;56.10;;;;;;5095702;28;20430;-72
2023/01/20 12:33:19;;;;;;;9.73;7.97;;;9.90;55.40;;;;;;5075537;28;20419;-71
2023/01/20 12:36:23;;;;;;;9.10;8.20;;;9.90;54.90;;;;;;5085700;28;20450;-71
2023/01/20 12:39:22;;;;;;;9.70;8.70;;;10.00;54.40;;;;;;5094839;28;20430;-72
2023/01/20 12:42:16;;;;;;;9.57;7.80;;;10.10;53.60;;;;;;5095105;28;20427;-72
2023/01/20 12:44:49;;;;;;;11.43;7.63;;;10.30;53.80;;;;;;5073973;28;20804;-70
2023/01/20 12:47:29;;;;;;;9.17;7.60;;;11.00;53.20;;;;;;5095319;28;20525;-71
2023/01/20 12:50:16;;;;;;;9.30;7.40;;;10.90;52.20;;;;;;5095101;28;20790;-71
2023/01/20 12:52:54;;;;;;;8.43;7.47;;;10.60;52.30;;;;;;5094316;28;20427;-71
2023/01/20 12:55:36;;;;;;;8.63;7.53;;;10.30;52.50;;;;;;5095352;28;20437;-70
2023/01/20 12:58:22;;;;;;;9.47;7.63;;;10.10;53.10;;;;;;5094739;28;20785;-70
2023/01/20 13:01:15;;;;;;;8.60;7.70;;;10.00;53.50;;;;;;5094866;28;20513;-71
2023/01/20 13:04:08;;;;;;;11.90;7.20;;;9.90;54.30;;;;;;5094820;28;20486;-71
2023/01/20 13:06:48;;;;;;;9.17;7.03;;;10.20;53.10;;;;;;5094998;28;20433;-70
2023/01/20 13:09:28;;;;;;;7.97;7.17;;;10.20;52.90;;;;;;5094904;28;20430;-71
2023/01/20 13:12:05;;;;;;;8.80;6.63;;;10.50;52.50;;;;;;5094556;28;20437;-71
2023/01/20 13:14:39;;;;;;;8.27;6.97;;;10.50;52.20;;;;;;5095525;28;20484;-72
2023/01/20 13:17:15;;;;;;;7.87;6.70;;;10.70;52.00;;;;;;5094329;28;20663;-71